Eufaula, Alabama
Current Conditions -  °F | °C
As of 5:58 AM on Monday 22 Dec 2014 (Local Time) from KEUF Reporting Station
Haze Haze  
Wind Chill: 46°   Ceiling: 200
Heat Index: 49°   Visibility: 4mi
Dew Point: 48°   Wind: 7mph
Humidity: 97%   Direction: 80°E
Pressure: 29.98"   Gusts: NA
Location:  31.9°N, 85.14°W
Report Text: KEUF 221158Z AUTO 08006KT 4SM BR OVC002 09/09 A2998 RMK AO2 RAB44E56 SLP150 P0001 60001 70004 T00940089 10100 20094 56007
Loading
Personal Weather Stations






























Interactive Weather Map New forecast layout! Learn more

10-Day Weather Forecast

Advertisements
Track Severe Weather on mobile